createdAt,value
2018-10-09T00:01:54.753Z,11.40
2018-10-09T00:04:23.225Z,11.40
2018-10-09T00:06:51.720Z,11.40
2018-10-09T00:09:20.166Z,11.40
2018-10-09T00:11:48.722Z,11.40
2018-10-09T00:14:17.271Z,11.30
2018-10-09T00:16:45.766Z,11.40
2018-10-09T00:19:14.213Z,11.40
2018-10-09T00:21:42.673Z,11.50
2018-10-09T00:24:11.125Z,11.40
2018-10-09T00:26:39.610Z,11.40
2018-10-09T00:29:08.081Z,11.40
2018-10-09T00:31:36.574Z,11.50
2018-10-09T00:34:05.494Z,11.50
2018-10-09T00:36:34.237Z,11.50
2018-10-09T00:39:02.817Z,11.50
2018-10-09T00:41:31.358Z,11.50
2018-10-09T00:43:59.837Z,11.40
2018-10-09T00:46:28.320Z,11.50
2018-10-09T00:48:56.804Z,11.40
2018-10-09T00:51:25.386Z,11.50
2018-10-09T00:53:53.822Z,11.50
2018-10-09T00:56:22.304Z,11.50
2018-10-09T00:58:50.853Z,11.40
2018-10-09T01:01:20.276Z,11.50
2018-10-09T01:03:48.825Z,11.50
2018-10-09T01:06:17.433Z,11.50
2018-10-09T01:08:45.942Z,11.50
2018-10-09T01:11:14.378Z,11.50
2018-10-09T01:13:42.918Z,11.50
2018-10-09T01:16:11.397Z,11.50
2018-10-09T01:18:39.903Z,11.50
2018-10-09T01:21:08.559Z,11.50
2018-10-09T01:23:37.158Z,11.50
2018-10-09T01:26:05.641Z,11.50
2018-10-09T01:28:34.115Z,11.50
2018-10-09T01:31:02.558Z,11.50
2018-10-09T01:33:31.045Z,11.50
2018-10-09T01:35:59.525Z,11.50
2018-10-09T01:38:28.011Z,11.50
2018-10-09T01:40:56.493Z,11.50
2018-10-09T01:43:24.960Z,11.50
2018-10-09T01:45:53.442Z,11.50
2018-10-09T01:48:21.886Z,11.50
2018-10-09T01:50:50.365Z,11.60
2018-10-09T01:53:18.815Z,11.60
2018-10-09T01:55:47.562Z,11.50
2018-10-09T01:58:16.471Z,11.50
2018-10-09T02:00:44.991Z,11.50
2018-10-09T02:03:13.449Z,11.30
2018-10-09T02:05:41.929Z,11.30
2018-10-09T02:08:10.445Z,11.20
2018-10-09T02:10:39.135Z,11.10
2018-10-09T02:13:08.205Z,11.10
2018-10-09T02:15:36.847Z,11.10
2018-10-09T02:18:05.438Z,11.10
2018-10-09T02:20:34.033Z,11.10
2018-10-09T02:23:02.821Z,11.10
2018-10-09T02:25:31.807Z,11.00
2018-10-09T02:28:00.457Z,11.00
2018-10-09T02:30:29.069Z,10.90
2018-10-09T02:33:03.290Z,10.80
2018-10-09T02:35:31.931Z,10.90
2018-10-09T02:38:00.526Z,10.90
2018-10-09T02:40:29.082Z,11.00
2018-10-09T02:42:57.555Z,11.00
2018-10-09T02:45:26.026Z,10.90
2018-10-09T02:47:54.606Z,10.90
2018-10-09T02:50:23.289Z,10.90
2018-10-09T02:52:51.838Z,10.90
2018-10-09T02:55:20.364Z,10.90
2018-10-09T02:57:48.857Z,10.90
2018-10-09T03:00:17.341Z,10.90
2018-10-09T03:02:45.841Z,11.00
2018-10-09T03:05:14.313Z,11.00
2018-10-09T03:07:43.033Z,11.10
2018-10-09T03:10:11.753Z,11.10
2018-10-09T03:12:40.217Z,11.10
2018-10-09T03:15:08.701Z,11.10
2018-10-09T03:17:37.156Z,11.10
2018-10-09T03:20:05.814Z,11.10
2018-10-09T03:22:34.311Z,11.10
2018-10-09T03:25:02.858Z,11.10
2018-10-09T03:27:31.408Z,11.00
2018-10-09T03:29:59.972Z,11.00
2018-10-09T03:32:28.545Z,11.10
2018-10-09T03:34:57.126Z,11.00
2018-10-09T03:37:25.580Z,11.00
2018-10-09T03:39:54.560Z,11.00
2018-10-09T03:42:23.112Z,10.90
2018-10-09T03:44:51.625Z,10.90
2018-10-09T03:47:20.157Z,10.80
2018-10-09T03:49:48.701Z,10.90
2018-10-09T03:52:17.217Z,10.90
2018-10-09T03:54:45.694Z,10.90
2018-10-09T03:57:14.346Z,10.80
2018-10-09T03:59:42.801Z,10.80
2018-10-09T04:02:11.597Z,10.80
2018-10-09T04:04:40.287Z,10.90
2018-10-09T04:07:08.821Z,10.90
2018-10-09T04:09:37.473Z,10.90
2018-10-09T04:12:05.908Z,10.90
2018-10-09T04:14:34.381Z,10.90
2018-10-09T04:17:02.897Z,10.80
2018-10-09T04:19:31.397Z,10.80
2018-10-09T04:21:59.830Z,10.80
2018-10-09T04:24:28.904Z,10.70
2018-10-09T04:26:57.420Z,10.70
2018-10-09T04:29:26.441Z,10.80
2018-10-09T04:31:54.892Z,10.80
2018-10-09T04:34:23.413Z,10.80
2018-10-09T04:36:51.910Z,10.80
2018-10-09T04:39:20.417Z,10.70
2018-10-09T04:41:48.905Z,10.70
2018-10-09T04:44:17.369Z,10.70
2018-10-09T04:46:45.857Z,10.70
2018-10-09T04:49:14.398Z,10.80
2018-10-09T04:51:42.881Z,10.90
2018-10-09T04:54:11.375Z,10.90
2018-10-09T04:56:39.857Z,10.90
2018-10-09T04:59:08.395Z,10.90
2018-10-09T05:01:36.884Z,10.90
2018-10-09T05:04:05.390Z,10.90
2018-10-09T05:06:33.883Z,10.90
2018-10-09T05:09:02.417Z,11.00
2018-10-09T05:11:30.899Z,11.10
2018-10-09T05:13:59.381Z,11.20
2018-10-09T05:16:28.514Z,11.20
2018-10-09T05:18:57.242Z,11.30
2018-10-09T05:21:25.718Z,11.30
2018-10-09T05:23:54.248Z,11.30
2018-10-09T05:26:22.757Z,11.40
2018-10-09T05:28:51.258Z,11.50
2018-10-09T05:31:19.768Z,11.60
2018-10-09T05:33:48.246Z,11.70
2018-10-09T05:36:16.702Z,11.70
2018-10-09T05:38:45.301Z,11.80
2018-10-09T05:41:14.329Z,11.80
2018-10-09T05:43:42.830Z,11.90
2018-10-09T05:46:11.351Z,12.00
2018-10-09T05:48:40.074Z,12.00
2018-10-09T05:51:09.025Z,12.10
2018-10-09T05:53:37.473Z,12.20
2018-10-09T05:56:06.126Z,12.20
2018-10-09T05:58:34.623Z,12.30
2018-10-09T06:01:03.157Z,12.30
2018-10-09T06:03:31.655Z,12.40
2018-10-09T06:06:00.251Z,12.50
2018-10-09T06:08:28.742Z,12.50
2018-10-09T06:10:57.258Z,12.50
2018-10-09T06:13:25.761Z,12.60
2018-10-09T06:15:54.296Z,12.60
2018-10-09T06:18:23.037Z,12.70
2018-10-09T06:20:51.518Z,12.70
2018-10-09T06:23:19.994Z,12.80
2018-10-09T06:25:48.864Z,12.80
2018-10-09T06:28:17.429Z,12.80
2018-10-09T06:30:45.883Z,13.00
2018-10-09T06:33:14.794Z,13.00
2018-10-09T06:35:47.054Z,13.10
2018-10-09T06:38:15.573Z,13.10
2018-10-09T06:40:44.068Z,13.10
2018-10-09T06:43:12.545Z,13.00
2018-10-09T06:45:41.012Z,12.90
2018-10-09T06:48:09.545Z,12.70
2018-10-09T06:50:38.017Z,12.70
2018-10-09T06:53:06.538Z,12.80
2018-10-09T06:55:35.028Z,12.90
2018-10-09T06:58:03.982Z,13.00
2018-10-09T07:00:32.469Z,13.10
2018-10-09T07:03:00.993Z,13.10
2018-10-09T07:05:29.481Z,13.10
2018-10-09T07:07:57.985Z,13.20
2018-10-09T07:10:26.476Z,13.20
2018-10-09T07:12:55.197Z,13.20
2018-10-09T07:15:23.679Z,13.30
2018-10-09T07:17:52.429Z,13.20
2018-10-09T07:20:20.891Z,13.30
2018-10-09T07:22:49.394Z,13.50
2018-10-09T07:25:17.846Z,13.60
2018-10-09T07:27:46.375Z,13.70
2018-10-09T07:30:14.817Z,13.70
2018-10-09T07:32:43.313Z,13.80
2018-10-09T07:35:12.105Z,13.80
2018-10-09T07:37:40.592Z,13.80
2018-10-09T07:40:09.061Z,13.90
2018-10-09T07:42:37.546Z,13.80
2018-10-09T07:45:06.053Z,13.90
2018-10-09T07:47:34.501Z,14.00
2018-10-09T07:50:03.032Z,14.00
2018-10-09T07:52:31.515Z,14.10
2018-10-09T07:55:00.010Z,14.10
2018-10-09T07:57:28.485Z,14.10
2018-10-09T07:59:56.998Z,14.10
2018-10-09T08:02:25.461Z,14.10
2018-10-09T08:04:54.366Z,14.00
2018-10-09T08:07:23.282Z,13.90
2018-10-09T08:09:51.789Z,13.90
2018-10-09T08:12:20.262Z,13.80
2018-10-09T08:14:48.990Z,13.90
2018-10-09T08:17:17.458Z,13.80
2018-10-09T08:19:46.357Z,13.80
2018-10-09T08:22:14.882Z,14.00
2018-10-09T08:24:43.335Z,14.20
2018-10-09T08:27:11.791Z,14.40
2018-10-09T08:29:40.282Z,14.60
2018-10-09T08:32:08.827Z,14.50
2018-10-09T08:34:37.382Z,14.40
2018-10-09T08:37:05.854Z,14.40
2018-10-09T08:39:34.346Z,14.50
2018-10-09T08:42:02.803Z,14.70
2018-10-09T08:44:31.436Z,14.80
2018-10-09T08:47:00.321Z,14.90
2018-10-09T08:49:28.822Z,15.00
2018-10-09T08:51:57.388Z,15.10
2018-10-09T08:54:25.845Z,15.40
2018-10-09T08:56:54.307Z,15.50
2018-10-09T08:59:22.773Z,15.60
2018-10-09T09:01:51.277Z,15.60
2018-10-09T09:04:19.765Z,15.70
2018-10-09T09:06:48.240Z,15.80
2018-10-09T09:09:16.807Z,15.80
2018-10-09T09:11:45.266Z,15.70
2018-10-09T09:14:13.762Z,15.50
2018-10-09T09:16:42.210Z,15.40
2018-10-09T09:19:10.730Z,15.00
2018-10-09T09:21:39.200Z,14.90
2018-10-09T09:24:07.814Z,14.80
2018-10-09T09:26:36.391Z,14.80
2018-10-09T09:29:04.905Z,14.80
2018-10-09T09:31:33.625Z,14.80
2018-10-09T09:34:02.134Z,14.80
2018-10-09T09:36:30.611Z,14.90
2018-10-09T09:38:59.069Z,14.90
2018-10-09T09:41:27.588Z,15.00
2018-10-09T09:43:56.093Z,15.10
2018-10-09T09:46:24.856Z,15.10
2018-10-09T09:48:53.346Z,15.10
2018-10-09T09:51:21.865Z,15.20
2018-10-09T09:53:50.378Z,15.20
2018-10-09T09:56:18.866Z,15.30
2018-10-09T09:58:47.493Z,15.40
2018-10-09T10:01:15.890Z,15.40
2018-10-09T10:03:44.418Z,15.50
2018-10-09T10:06:12.879Z,15.50
2018-10-09T10:08:41.379Z,15.60
2018-10-09T10:11:09.861Z,15.80
2018-10-09T10:13:38.313Z,15.80
2018-10-09T10:16:06.827Z,15.90
2018-10-09T10:18:35.345Z,15.90
2018-10-09T10:21:03.886Z,16.00
2018-10-09T10:23:32.366Z,16.00
2018-10-09T10:26:00.881Z,16.20
2018-10-09T10:28:29.377Z,16.20
2018-10-09T10:30:57.873Z,16.20
2018-10-09T10:33:26.365Z,16.30
2018-10-09T10:35:54.901Z,16.50
2018-10-09T10:38:23.613Z,16.40
2018-10-09T10:40:52.155Z,16.40
2018-10-09T10:43:20.625Z,16.40
2018-10-09T10:45:49.410Z,16.50
2018-10-09T10:48:17.926Z,16.50
2018-10-09T10:50:46.413Z,16.50
2018-10-09T10:53:14.876Z,16.70
2018-10-09T10:55:43.378Z,16.80
2018-10-09T10:58:11.870Z,16.90
2018-10-09T11:00:40.375Z,16.90
2018-10-09T11:03:08.878Z,17.00
2018-10-09T11:05:37.399Z,17.00
2018-10-09T11:08:06.246Z,17.20
2018-10-09T11:10:34.942Z,17.10
2018-10-09T11:13:04.177Z,17.20
2018-10-09T11:15:32.682Z,17.40
2018-10-09T11:18:01.138Z,17.40
2018-10-09T11:20:29.917Z,17.30
2018-10-09T11:22:58.371Z,17.40
2018-10-09T11:25:26.965Z,17.50
2018-10-09T11:27:55.417Z,17.50
2018-10-09T11:30:23.921Z,17.50
2018-10-09T11:32:53.241Z,17.50
2018-10-09T11:35:21.782Z,17.40
2018-10-09T11:37:50.444Z,17.30
2018-10-09T11:40:18.982Z,17.40
2018-10-09T11:42:47.710Z,17.40
2018-10-09T11:45:16.172Z,17.50
2018-10-09T11:47:45.086Z,17.60
2018-10-09T11:50:13.559Z,17.60
2018-10-09T11:52:42.047Z,17.70
2018-10-09T11:55:10.505Z,17.70
2018-10-09T11:57:38.993Z,17.80
2018-10-09T12:00:08.739Z,17.60
2018-10-09T12:02:37.269Z,17.60
2018-10-09T12:05:05.733Z,17.60
2018-10-09T12:07:34.240Z,17.60
2018-10-09T12:10:02.828Z,17.70
2018-10-09T12:12:31.389Z,17.70
2018-10-09T12:14:59.865Z,17.80
2018-10-09T12:17:28.330Z,17.80
2018-10-09T12:19:56.858Z,17.90
2018-10-09T12:22:25.473Z,17.90
2018-10-09T12:24:53.969Z,18.10
2018-10-09T12:27:22.437Z,18.00
2018-10-09T12:29:51.761Z,18.00
2018-10-09T12:32:22.036Z,18.10
2018-10-09T12:34:52.515Z,18.00
2018-10-09T12:37:21.346Z,18.10
2018-10-09T12:39:49.891Z,18.00
2018-10-09T12:42:18.416Z,18.10
2018-10-09T12:44:48.333Z,18.20
2018-10-09T12:47:16.892Z,18.30
2018-10-09T12:49:45.339Z,18.30
2018-10-09T12:52:13.849Z,18.30
2018-10-09T12:54:42.303Z,18.20
2018-10-09T12:57:11.092Z,18.20
2018-10-09T12:59:39.530Z,18.20
2018-10-09T13:02:08.097Z,18.30
2018-10-09T13:04:36.525Z,18.20
2018-10-09T13:07:05.050Z,18.20
2018-10-09T13:09:33.592Z,18.20
2018-10-09T13:12:02.056Z,18.20
2018-10-09T13:14:30.570Z,18.30
2018-10-09T13:16:59.100Z,18.40
2018-10-09T13:19:27.518Z,18.50
2018-10-09T13:21:56.290Z,18.50
2018-10-09T13:24:24.697Z,18.50
2018-10-09T13:26:53.221Z,18.50
2018-10-09T13:29:21.682Z,18.50
2018-10-09T13:31:50.577Z,18.50
2018-10-09T13:34:19.804Z,18.50
2018-10-09T13:36:48.473Z,18.40
2018-10-09T13:39:16.958Z,18.30
2018-10-09T13:41:45.433Z,18.30
2018-10-09T13:44:13.972Z,18.20
2018-10-09T13:46:42.601Z,18.20
2018-10-09T13:49:11.701Z,18.20
2018-10-09T13:51:40.254Z,18.10
2018-10-09T13:54:08.765Z,18.20
2018-10-09T13:56:37.289Z,18.30
2018-10-09T13:59:06.221Z,18.40
2018-10-09T14:01:34.727Z,18.50
2018-10-09T14:04:03.185Z,18.60
2018-10-09T14:06:31.705Z,18.60
2018-10-09T14:09:00.178Z,18.60
2018-10-09T14:11:28.650Z,18.70
2018-10-09T14:13:57.165Z,18.80
2018-10-09T14:16:25.936Z,18.90
2018-10-09T14:18:54.394Z,19.00
2018-10-09T14:21:22.862Z,19.00
2018-10-09T14:23:51.318Z,19.00
2018-10-09T14:26:19.829Z,19.10
2018-10-09T14:28:48.297Z,19.00
2018-10-09T14:31:16.769Z,19.10
2018-10-09T14:33:45.277Z,19.10
2018-10-09T14:36:13.726Z,19.00
2018-10-09T14:38:42.214Z,19.00
2018-10-09T14:41:10.673Z,19.00
2018-10-09T14:43:39.175Z,18.90
2018-10-09T14:46:08.046Z,19.00
2018-10-09T14:48:36.536Z,19.00
2018-10-09T14:51:05.084Z,19.00
2018-10-09T14:53:33.687Z,19.00
2018-10-09T14:56:02.185Z,19.00
2018-10-09T14:58:30.661Z,19.10
2018-10-09T15:00:59.138Z,19.00
2018-10-09T15:03:27.633Z,19.00
2018-10-09T15:05:56.175Z,18.90
2018-10-09T15:08:24.631Z,18.80
2018-10-09T15:10:53.152Z,18.70
2018-10-09T15:13:21.587Z,18.50
2018-10-09T15:15:50.121Z,18.40
2018-10-09T15:18:18.625Z,18.40
2018-10-09T15:20:47.229Z,18.30
2018-10-09T15:23:15.937Z,18.10
2018-10-09T15:25:45.878Z,18.10
2018-10-09T15:28:15.389Z,18.00
2018-10-09T15:30:44.633Z,17.90
2018-10-09T15:33:14.349Z,17.90
2018-10-09T15:35:42.870Z,17.80
2018-10-09T15:38:12.684Z,17.80
2018-10-09T15:40:41.217Z,17.70
2018-10-09T15:43:09.735Z,17.70
2018-10-09T15:45:38.246Z,17.70
2018-10-09T15:48:06.730Z,17.60
2018-10-09T15:50:35.241Z,17.50
2018-10-09T15:53:03.837Z,17.50
2018-10-09T15:55:32.401Z,17.40
2018-10-09T15:58:00.971Z,17.40
2018-10-09T16:00:33.685Z,17.40
2018-10-09T16:03:02.122Z,17.20
2018-10-09T16:05:30.597Z,17.10
2018-10-09T16:07:59.026Z,17.00
2018-10-09T16:10:27.514Z,17.00
2018-10-09T16:12:56.013Z,17.00
2018-10-09T16:15:24.466Z,17.00
2018-10-09T16:17:52.953Z,17.00
2018-10-09T16:20:21.410Z,16.90
2018-10-09T16:22:50.062Z,16.80
2018-10-09T16:25:18.538Z,16.70
2018-10-09T16:27:47.073Z,16.60
2018-10-09T16:30:15.569Z,16.60
2018-10-09T16:32:44.369Z,16.50
2018-10-09T16:35:12.647Z,16.40
2018-10-09T16:37:41.121Z,16.40
2018-10-09T16:40:09.885Z,16.30
2018-10-09T16:42:38.381Z,16.20
2018-10-09T16:45:06.916Z,16.10
2018-10-09T16:47:35.758Z,16.00
2018-10-09T16:50:04.301Z,15.90
2018-10-09T16:52:32.798Z,15.80
2018-10-09T16:55:01.238Z,15.70
2018-10-09T16:57:29.710Z,15.60
2018-10-09T16:59:58.182Z,15.50
2018-10-09T17:02:26.653Z,15.50
2018-10-09T17:04:55.121Z,15.50
2018-10-09T17:07:23.679Z,15.40
2018-10-09T17:09:52.180Z,15.20
2018-10-09T17:12:20.654Z,15.20
2018-10-09T17:14:49.111Z,15.20
2018-10-09T17:17:17.634Z,15.10
2018-10-09T17:19:46.232Z,15.00
2018-10-09T17:22:14.653Z,14.90
2018-10-09T17:24:43.191Z,14.90
2018-10-09T17:27:11.642Z,14.90
2018-10-09T17:29:40.143Z,14.80
2018-10-09T17:32:08.629Z,14.70
2018-10-09T17:34:37.233Z,14.60
2018-10-09T17:37:05.806Z,14.50
2018-10-09T17:39:34.386Z,14.50
2018-10-09T17:42:02.904Z,14.40
2018-10-09T17:44:31.485Z,14.40
2018-10-09T17:47:04.200Z,14.30
2018-10-09T17:49:32.869Z,14.30
2018-10-09T17:52:01.348Z,14.20
2018-10-09T17:54:29.821Z,14.10
2018-10-09T17:56:59.006Z,14.00
2018-10-09T17:59:27.489Z,14.00
2018-10-09T18:01:56.001Z,13.90
2018-10-09T18:04:24.505Z,13.90
2018-10-09T18:06:52.994Z,13.90
2018-10-09T18:09:23.254Z,13.80
2018-10-09T18:11:51.761Z,13.80
2018-10-09T18:14:20.270Z,13.80
2018-10-09T18:16:48.730Z,13.70
2018-10-09T18:19:17.245Z,13.70
2018-10-09T18:21:46.035Z,13.60
2018-10-09T18:24:14.533Z,13.60
2018-10-09T18:26:43.818Z,13.60
2018-10-09T18:29:12.297Z,13.50
2018-10-09T18:31:40.757Z,13.50
2018-10-09T18:34:09.285Z,13.40
2018-10-09T18:36:38.018Z,13.40
2018-10-09T18:39:10.442Z,13.30
2018-10-09T18:41:39.094Z,13.30
2018-10-09T18:44:07.461Z,13.20
2018-10-09T18:46:52.563Z,13.20
2018-10-09T18:49:21.050Z,13.10
2018-10-09T18:51:49.494Z,13.10
2018-10-09T18:54:17.967Z,13.10
2018-10-09T18:56:46.428Z,13.00
2018-10-09T18:59:14.947Z,13.10
2018-10-09T19:01:43.442Z,13.00
2018-10-09T19:04:12.191Z,13.00
2018-10-09T19:06:40.674Z,12.90
2018-10-09T19:09:11.374Z,12.70
2018-10-09T19:11:40.085Z,12.90
2018-10-09T19:14:08.833Z,12.90
2018-10-09T19:16:37.335Z,12.80
2018-10-09T19:19:05.961Z,12.80
2018-10-09T19:21:34.470Z,12.80
2018-10-09T19:24:02.942Z,12.80
2018-10-09T19:26:31.508Z,12.70
2018-10-09T19:29:00.223Z,12.60
2018-10-09T19:31:28.745Z,12.60
2018-10-09T19:33:57.215Z,12.60
2018-10-09T19:36:25.766Z,12.60
2018-10-09T19:38:54.274Z,12.60
2018-10-09T19:41:22.789Z,12.60
2018-10-09T19:43:51.318Z,12.60
2018-10-09T19:46:19.852Z,12.50
2018-10-09T19:48:48.352Z,12.60
2018-10-09T19:51:17.757Z,12.50
2018-10-09T19:53:46.190Z,12.50
2018-10-09T19:56:14.735Z,12.50
2018-10-09T19:58:43.310Z,12.40
2018-10-09T20:01:11.959Z,12.40
2018-10-09T20:03:40.434Z,12.40
2018-10-09T20:06:08.974Z,12.30
2018-10-09T20:08:37.483Z,12.30
2018-10-09T20:11:06.040Z,12.30
2018-10-09T20:13:34.546Z,12.20
2018-10-09T20:16:03.050Z,12.20
2018-10-09T20:18:31.957Z,12.20
2018-10-09T20:21:00.624Z,12.10
2018-10-09T20:23:29.097Z,12.10
2018-10-09T20:25:57.842Z,12.10
2018-10-09T20:28:26.344Z,12.10
2018-10-09T20:30:54.903Z,12.10
2018-10-09T20:33:23.367Z,12.10
2018-10-09T20:35:51.931Z,12.00
2018-10-09T20:38:20.429Z,12.00
2018-10-09T20:40:48.958Z,12.00
2018-10-09T20:43:17.538Z,12.10
2018-10-09T20:45:46.081Z,12.00
2018-10-09T20:48:14.589Z,12.00
2018-10-09T20:50:43.123Z,12.00
2018-10-09T20:53:11.599Z,11.90
2018-10-09T20:55:40.134Z,11.90
2018-10-09T20:58:08.638Z,11.90
2018-10-09T21:00:37.197Z,11.80
2018-10-09T21:03:05.762Z,11.80
2018-10-09T21:05:34.301Z,11.80
2018-10-09T21:08:02.822Z,11.80
2018-10-09T21:10:31.387Z,11.80
2018-10-09T21:12:59.881Z,11.80
2018-10-09T21:15:28.353Z,11.70
2018-10-09T21:17:56.877Z,11.80
2018-10-09T21:20:25.349Z,11.80
2018-10-09T21:22:53.914Z,11.80
2018-10-09T21:25:22.425Z,11.80
2018-10-09T21:27:51.077Z,11.80
2018-10-09T21:30:19.622Z,11.70
2018-10-09T21:32:48.138Z,11.70
2018-10-09T21:35:16.598Z,11.70
2018-10-09T21:37:45.112Z,11.70
2018-10-09T21:40:13.603Z,11.70
2018-10-09T21:42:42.081Z,11.70
2018-10-09T21:45:10.545Z,11.70
2018-10-09T21:47:43.262Z,11.60
2018-10-09T21:50:12.082Z,11.60
2018-10-09T21:52:40.662Z,11.50
2018-10-09T21:55:09.175Z,11.50
2018-10-09T21:57:37.776Z,11.50
2018-10-09T22:00:06.421Z,11.50
2018-10-09T22:02:34.945Z,11.40
2018-10-09T22:05:03.514Z,11.40
2018-10-09T22:07:32.269Z,11.40
2018-10-09T22:10:01.121Z,11.40
2018-10-09T22:12:29.624Z,11.40
2018-10-09T22:14:58.130Z,11.40
2018-10-09T22:17:26.961Z,11.30
2018-10-09T22:19:55.715Z,11.30
2018-10-09T22:22:24.518Z,11.30
2018-10-09T22:24:52.992Z,11.30
2018-10-09T22:27:21.912Z,11.30
2018-10-09T22:29:50.607Z,11.30
2018-10-09T22:32:19.142Z,11.30
2018-10-09T22:34:47.989Z,11.30
2018-10-09T22:37:16.676Z,11.30
2018-10-09T22:39:45.278Z,11.30
2018-10-09T22:42:13.780Z,11.20
2018-10-09T22:44:42.267Z,11.20
2018-10-09T22:47:10.774Z,11.20
2018-10-09T22:49:39.294Z,11.10
2018-10-09T22:52:07.910Z,11.20
2018-10-09T22:54:36.403Z,11.20
2018-10-09T22:57:04.988Z,11.20
2018-10-09T22:59:33.827Z,11.20
2018-10-09T23:02:02.458Z,11.20
2018-10-09T23:04:30.993Z,11.10
2018-10-09T23:06:59.518Z,11.10
2018-10-09T23:09:28.022Z,11.10
2018-10-09T23:11:56.521Z,11.10
2018-10-09T23:14:25.016Z,11.00
2018-10-09T23:16:53.486Z,11.10
2018-10-09T23:19:22.010Z,11.10
2018-10-09T23:21:50.513Z,11.10
2018-10-09T23:24:19.073Z,11.10
2018-10-09T23:26:47.565Z,11.20
2018-10-09T23:29:16.074Z,11.30
2018-10-09T23:31:44.959Z,11.30
2018-10-09T23:34:13.470Z,11.20
2018-10-09T23:36:41.963Z,11.30
2018-10-09T23:39:10.474Z,11.30
2018-10-09T23:41:38.981Z,11.30
2018-10-09T23:44:07.547Z,11.30
2018-10-09T23:46:36.093Z,11.40
2018-10-09T23:49:04.653Z,11.40
2018-10-09T23:51:33.137Z,11.50
2018-10-09T23:54:01.647Z,11.40
2018-10-09T23:56:30.126Z,11.50
2018-10-09T23:58:58.739Z,11.50
